Time;durP1;ratioP1;P1;durP2;ratioP2;P2;SDS_P1;SDS_P2;PMS_P1;PMS_P2;Temp;Humidity;BMP_temperature;BMP_pressure;BME280_temperature;BME280_humidity;BME280_pressure;Samples;Min_cycle;Max_cycle;Signal;HPM_P1;HPM_P2
2023/05/28 00:01:37;;;;;;;10.10;4.57;;;;;;;;;;5074873;28;20896;-72
2023/05/28 00:04:05;;;;;;;8.80;4.37;;;;;;;;;;5074950;28;20447;-72
2023/05/28 00:06:32;;;;;;;9.07;4.40;;;;;;;;;;5074633;28;20487;-72
2023/05/28 00:08:59;;;;;;;14.83;5.00;;;;;;;;;;5074308;28;20472;-72
2023/05/28 00:11:26;;;;;;;13.20;4.83;;;;;;;;;;5074555;28;20454;-72
2023/05/28 00:13:53;;;;;;;8.80;4.70;;;;;;;;;;5074635;28;20957;-72
2023/05/28 00:16:20;;;;;;;9.70;5.20;;;;;;;;;;5074315;28;20448;-72
2023/05/28 00:18:48;;;;;;;8.53;4.87;;;;;;;;;;5074192;28;20471;-72
2023/05/28 00:21:15;;;;;;;13.43;4.33;;;;;;;;;;5074483;28;20966;-72
2023/05/28 00:23:43;;;;;;;11.50;5.60;;;;;;;;;;5073319;28;20479;-72
2023/05/28 00:26:10;;;;;;;9.23;4.70;;;;;;;;;;5073994;28;20487;-72
2023/05/28 00:28:37;;;;;;;11.07;5.00;;;;;;;;;;5073821;28;20487;-72
2023/05/28 00:31:04;;;;;;;13.80;5.03;;;;;;;;;;5074118;28;20466;-72
2023/05/28 00:33:31;;;;;;;11.37;4.57;;;;;;;;;;5074287;28;20455;-72
2023/05/28 00:36:00;;;;;;;13.47;5.50;;;;;;;;;;5074086;28;20519;-72
2023/05/28 00:38:27;;;;;;;11.40;6.00;;;;;;;;;;5073853;28;20975;-71
2023/05/28 00:40:55;;;;;;;10.93;4.77;;;;;;;;;;5073873;28;20479;-72
2023/05/28 00:43:22;;;;;;;13.13;5.30;;;;;;;;;;5073850;28;20480;-72
2023/05/28 00:45:51;;;;;;;15.00;6.40;;;;;;;;;;5073803;28;20491;-72
2023/05/28 00:48:19;;;;;;;9.30;4.33;;;;;;;;;;5073426;28;20555;-72
2023/05/28 00:50:46;;;;;;;9.93;4.93;;;;;;;;;;5073938;28;20810;-72
2023/05/28 00:53:15;;;;;;;7.60;4.40;;;;;;;;;;5073711;28;20451;-72
2023/05/28 00:55:42;;;;;;;13.53;5.20;;;;;;;;;;5073732;28;20451;-72
2023/05/28 00:58:10;;;;;;;13.30;5.27;;;;;;;;;;5073422;28;20966;-72
2023/05/28 01:00:38;;;;;;;8.30;4.80;;;;;;;;;;5073634;28;20462;-72
2023/05/28 01:03:05;;;;;;;19.93;4.83;;;;;;;;;;5073639;28;21033;-72
2023/05/28 01:05:34;;;;;;;9.43;5.17;;;;;;;;;;5073447;28;21035;-72
2023/05/28 01:08:01;;;;;;;11.23;5.60;;;;;;;;;;5073375;28;20946;-72
2023/05/28 01:10:30;;;;;;;16.70;5.03;;;;;;;;;;5073056;28;20476;-72
2023/05/28 01:12:57;;;;;;;8.20;4.77;;;;;;;;;;5073406;28;20459;-72
2023/05/28 01:15:24;;;;;;;11.20;5.27;;;;;;;;;;5073418;28;20459;-72
2023/05/28 01:17:55;;;;;;;7.17;4.70;;;;;;;;;;5073390;28;20459;-72
2023/05/28 01:20:23;;;;;;;12.07;6.00;;;;;;;;;;5073062;28;20484;-72
2023/05/28 01:22:54;;;;;;;7.20;4.57;;;;;;;;;;5073237;28;20454;-72
2023/05/28 01:25:23;;;;;;;18.50;6.47;;;;;;;;;;5072766;28;20886;-72
2023/05/28 01:27:50;;;;;;;12.37;4.80;;;;;;;;;;5073357;28;20820;-72
2023/05/28 01:30:17;;;;;;;9.60;4.27;;;;;;;;;;5072834;28;20978;-72
2023/05/28 01:32:44;;;;;;;15.03;5.60;;;;;;;;;;5073081;28;20448;-72
2023/05/28 01:35:12;;;;;;;8.43;5.13;;;;;;;;;;5072093;28;20459;-72
2023/05/28 01:37:40;;;;;;;9.90;4.70;;;;;;;;;;5073121;28;20934;-72
2023/05/28 01:40:09;;;;;;;10.13;5.13;;;;;;;;;;5072843;28;20479;-71
2023/05/28 01:42:38;;;;;;;14.00;4.90;;;;;;;;;;5073315;28;20495;-71
2023/05/28 01:45:06;;;;;;;9.13;4.63;;;;;;;;;;5072991;28;20447;-71
2023/05/28 01:47:33;;;;;;;11.80;5.27;;;;;;;;;;5072857;28;20494;-72
2023/05/28 01:50:01;;;;;;;9.90;4.30;;;;;;;;;;5072698;28;20470;-72
2023/05/28 01:52:28;;;;;;;13.73;5.53;;;;;;;;;;5073048;28;20460;-72
2023/05/28 01:54:55;;;;;;;9.47;4.90;;;;;;;;;;5072955;28;20452;-72
2023/05/28 01:57:22;;;;;;;14.97;5.10;;;;;;;;;;5072830;28;20444;-72
2023/05/28 01:59:50;;;;;;;14.87;5.53;;;;;;;;;;5072777;28;21008;-72
2023/05/28 02:02:19;;;;;;;8.77;4.97;;;;;;;;;;5072846;28;20452;-72
2023/05/28 02:04:46;;;;;;;9.40;5.43;;;;;;;;;;5073235;28;20464;-72
2023/05/28 02:07:13;;;;;;;11.70;5.20;;;;;;;;;;5072746;28;20490;-72
2023/05/28 02:09:41;;;;;;;13.83;5.53;;;;;;;;;;5072576;28;20460;-72
2023/05/28 02:12:08;;;;;;;11.50;5.43;;;;;;;;;;5072865;28;20439;-72
2023/05/28 02:14:35;;;;;;;14.10;6.30;;;;;;;;;;5072819;28;20443;-72
2023/05/28 02:17:04;;;;;;;11.30;5.97;;;;;;;;;;5072705;28;20527;-72
2023/05/28 02:19:32;;;;;;;12.20;5.60;;;;;;;;;;5072438;28;20471;-72
2023/05/28 02:21:59;;;;;;;10.50;5.43;;;;;;;;;;5072529;28;21034;-72
2023/05/28 02:24:27;;;;;;;18.40;6.93;;;;;;;;;;5072537;28;20841;-72
2023/05/28 02:26:54;;;;;;;16.03;6.43;;;;;;;;;;5072744;28;20486;-72
2023/05/28 02:29:21;;;;;;;13.80;5.53;;;;;;;;;;5072035;28;20484;-72
2023/05/28 02:31:48;;;;;;;14.20;4.70;;;;;;;;;;5072618;28;20459;-72
2023/05/28 02:34:17;;;;;;;10.53;5.93;;;;;;;;;;5072400;28;20842;-72
2023/05/28 02:36:44;;;;;;;12.20;5.60;;;;;;;;;;5072525;28;20455;-72
2023/05/28 02:39:11;;;;;;;13.77;5.67;;;;;;;;;;5072042;28;20479;-72
2023/05/28 02:41:38;;;;;;;10.43;5.43;;;;;;;;;;5072673;28;20859;-72
2023/05/28 02:44:05;;;;;;;11.83;6.40;;;;;;;;;;5072282;28;20467;-72
2023/05/28 02:46:32;;;;;;;12.57;6.70;;;;;;;;;;5072873;28;20494;-72
2023/05/28 02:48:59;;;;;;;9.43;5.27;;;;;;;;;;5075874;28;20467;-72
2023/05/28 02:51:28;;;;;;;13.30;6.23;;;;;;;;;;5076045;28;20459;-72
2023/05/28 02:53:55;;;;;;;9.63;5.57;;;;;;;;;;5076148;28;20819;-72
2023/05/28 02:56:22;;;;;;;10.20;6.27;;;;;;;;;;5075917;28;20820;-72
2023/05/28 02:58:49;;;;;;;15.20;6.80;;;;;;;;;;5075796;28;20904;-72
2023/05/28 03:01:17;;;;;;;15.77;6.93;;;;;;;;;;5075949;28;20530;-72
2023/05/28 03:03:44;;;;;;;14.90;4.90;;;;;;;;;;5075743;28;20447;-72
2023/05/28 03:06:11;;;;;;;19.43;7.20;;;;;;;;;;5075773;28;20562;-72
2023/05/28 03:08:39;;;;;;;13.40;5.43;;;;;;;;;;5075633;28;20989;-72
2023/05/28 03:11:06;;;;;;;10.27;5.00;;;;;;;;;;5075700;28;20451;-72
2023/05/28 03:13:33;;;;;;;16.93;7.87;;;;;;;;;;5075918;28;20458;-72
2023/05/28 03:16:01;;;;;;;15.97;6.13;;;;;;;;;;5075577;28;20460;-72
2023/05/28 03:18:28;;;;;;;13.83;5.40;;;;;;;;;;5075194;28;20547;-72
2023/05/28 03:20:55;;;;;;;16.93;5.50;;;;;;;;;;5075485;28;20447;-72
2023/05/28 03:23:22;;;;;;;16.43;6.40;;;;;;;;;;5075311;28;20550;-71
2023/05/28 03:25:51;;;;;;;20.03;6.30;;;;;;;;;;5074916;28;20447;-72
2023/05/28 03:28:18;;;;;;;14.90;7.30;;;;;;;;;;5074987;28;20503;-72
2023/05/28 03:30:45;;;;;;;17.13;6.30;;;;;;;;;;5075626;28;20903;-72
2023/05/28 03:33:12;;;;;;;16.00;5.93;;;;;;;;;;5075325;28;20448;-72
2023/05/28 03:35:39;;;;;;;19.57;6.77;;;;;;;;;;5075359;28;20451;-72
2023/05/28 03:38:06;;;;;;;10.53;6.17;;;;;;;;;;5075082;28;20464;-72
2023/05/28 03:40:33;;;;;;;15.20;4.83;;;;;;;;;;5075191;28;20858;-72
2023/05/28 03:43:02;;;;;;;12.60;7.10;;;;;;;;;;5075076;28;20458;-72
2023/05/28 03:45:29;;;;;;;13.80;6.10;;;;;;;;;;5075437;28;20815;-72
2023/05/28 03:47:56;;;;;;;19.10;5.83;;;;;;;;;;5074960;28;20488;-72
2023/05/28 03:50:24;;;;;;;16.10;5.90;;;;;;;;;;5074700;28;20568;-72
2023/05/28 03:52:51;;;;;;;23.90;6.90;;;;;;;;;;5074917;28;20947;-72
2023/05/28 03:55:19;;;;;;;12.73;6.50;;;;;;;;;;5074812;28;20452;-71
2023/05/28 03:57:46;;;;;;;13.07;5.53;;;;;;;;;;5074631;28;20487;-71
2023/05/28 04:00:16;;;;;;;18.50;6.17;;;;;;;;;;5074139;28;20533;-71
2023/05/28 04:02:43;;;;;;;13.73;6.30;;;;;;;;;;5074761;28;20448;-72
2023/05/28 04:05:10;;;;;;;10.37;5.33;;;;;;;;;;5074584;28;20452;-72
2023/05/28 04:07:37;;;;;;;19.40;5.70;;;;;;;;;;5074595;28;20519;-72
2023/05/28 04:10:05;;;;;;;9.90;4.90;;;;;;;;;;5074445;28;20869;-72
2023/05/28 04:12:32;;;;;;;9.90;5.30;;;;;;;;;;5074783;28;20486;-72
2023/05/28 04:15:00;;;;;;;10.17;5.00;;;;;;;;;;5074453;28;20445;-72
2023/05/28 04:17:29;;;;;;;11.23;5.93;;;;;;;;;;5074578;28;20455;-72
2023/05/28 04:19:56;;;;;;;16.33;4.50;;;;;;;;;;5074318;28;20507;-74
2023/05/28 04:22:24;;;;;;;12.43;4.87;;;;;;;;;;5074488;28;20447;-74
2023/05/28 04:24:51;;;;;;;14.77;5.07;;;;;;;;;;5074072;28;20444;-74
2023/05/28 04:27:18;;;;;;;8.60;4.13;;;;;;;;;;5074350;28;20570;-74
2023/05/28 04:29:46;;;;;;;11.40;4.77;;;;;;;;;;5073913;28;20989;-74
2023/05/28 04:32:13;;;;;;;8.57;4.60;;;;;;;;;;5074045;28;20969;-74
2023/05/28 04:34:42;;;;;;;7.37;5.27;;;;;;;;;;5074319;28;20874;-74
2023/05/28 04:37:10;;;;;;;7.77;5.03;;;;;;;;;;5074126;28;20493;-74
2023/05/28 04:39:37;;;;;;;9.73;6.17;;;;;;;;;;5073808;28;20566;-74
2023/05/28 04:42:07;;;;;;;10.27;5.17;;;;;;;;;;5074166;28;20521;-74
2023/05/28 04:44:34;;;;;;;11.80;5.10;;;;;;;;;;5074128;28;20942;-75
2023/05/28 04:47:03;;;;;;;11.63;5.57;;;;;;;;;;5073797;28;20526;-74
2023/05/28 04:49:31;;;;;;;9.47;5.80;;;;;;;;;;5073661;28;21075;-74
2023/05/28 04:51:59;;;;;;;10.23;4.90;;;;;;;;;;5073975;28;21011;-74
2023/05/28 04:54:27;;;;;;;17.97;4.63;;;;;;;;;;5073756;28;20448;-74
2023/05/28 04:56:54;;;;;;;8.93;4.97;;;;;;;;;;5073659;28;20455;-75
2023/05/28 04:59:21;;;;;;;8.17;5.43;;;;;;;;;;5073587;28;20974;-75
2023/05/28 05:01:48;;;;;;;10.23;5.00;;;;;;;;;;5073813;28;20456;-75
2023/05/28 05:04:15;;;;;;;10.30;4.97;;;;;;;;;;5073816;28;20458;-75
2023/05/28 05:06:43;;;;;;;8.90;4.90;;;;;;;;;;5073555;28;20452;-75
2023/05/28 05:09:11;;;;;;;11.30;5.90;;;;;;;;;;5073015;28;20472;-75
2023/05/28 05:11:38;;;;;;;10.23;4.77;;;;;;;;;;5073818;28;20862;-75
2023/05/28 05:14:05;;;;;;;6.33;4.17;;;;;;;;;;5073596;28;20451;-75
2023/05/28 05:16:32;;;;;;;7.50;3.93;;;;;;;;;;5073484;28;20455;-75
2023/05/28 05:18:59;;;;;;;10.33;5.00;;;;;;;;;;5073389;28;20988;-75
2023/05/28 05:21:27;;;;;;;10.30;4.90;;;;;;;;;;5073287;28;20444;-75
2023/05/28 05:23:54;;;;;;;12.30;5.37;;;;;;;;;;5072996;28;20447;-75
2023/05/28 05:26:22;;;;;;;10.40;4.90;;;;;;;;;;5073282;28;20546;-75
2023/05/28 05:28:50;;;;;;;9.80;4.63;;;;;;;;;;5072826;28;20907;-75
2023/05/28 05:31:17;;;;;;;8.40;4.50;;;;;;;;;;5073262;28;20455;-75
2023/05/28 05:33:44;;;;;;;7.37;4.27;;;;;;;;;;5073397;28;20451;-75
2023/05/28 05:36:11;;;;;;;8.63;4.17;;;;;;;;;;5073067;28;20451;-75
2023/05/28 05:38:38;;;;;;;9.63;4.60;;;;;;;;;;5072833;28;20471;-75
2023/05/28 05:41:06;;;;;;;9.50;4.20;;;;;;;;;;5073213;28;20448;-75
2023/05/28 05:43:34;;;;;;;7.87;4.53;;;;;;;;;;5073357;28;20822;-75
2023/05/28 05:46:01;;;;;;;8.00;4.90;;;;;;;;;;5073151;28;20456;-75
2023/05/28 05:48:28;;;;;;;12.70;5.00;;;;;;;;;;5072610;28;20491;-75
2023/05/28 05:50:57;;;;;;;7.90;5.30;;;;;;;;;;5073051;28;20452;-75
2023/05/28 05:53:25;;;;;;;6.80;3.87;;;;;;;;;;5073064;28;20946;-75
2023/05/28 05:55:52;;;;;;;5.73;4.10;;;;;;;;;;5073037;28;20455;-75
2023/05/28 05:58:20;;;;;;;8.67;4.30;;;;;;;;;;5072582;28;20455;-75
2023/05/28 06:00:48;;;;;;;6.00;3.87;;;;;;;;;;5073012;28;20467;-75
2023/05/28 06:03:15;;;;;;;7.60;4.13;;;;;;;;;;5072800;28;20455;-75
2023/05/28 06:05:42;;;;;;;6.47;4.30;;;;;;;;;;5073175;28;20869;-75
2023/05/28 06:08:09;;;;;;;7.93;5.17;;;;;;;;;;5072693;28;20574;-75
2023/05/28 06:10:37;;;;;;;8.17;4.77;;;;;;;;;;5072734;28;20454;-75
2023/05/28 06:13:04;;;;;;;5.00;3.90;;;;;;;;;;5072734;28;20503;-75
2023/05/28 06:15:31;;;;;;;12.23;4.27;;;;;;;;;;5072794;28;20448;-75
2023/05/28 06:18:00;;;;;;;7.33;4.33;;;;;;;;;;5072609;28;20842;-75
2023/05/28 06:20:27;;;;;;;6.50;4.13;;;;;;;;;;5072378;28;20566;-76
2023/05/28 06:22:55;;;;;;;6.43;3.23;;;;;;;;;;5075553;28;20451;-76
2023/05/28 06:25:23;;;;;;;5.03;3.60;;;;;;;;;;5076103;28;20459;-75
2023/05/28 06:27:51;;;;;;;6.63;3.80;;;;;;;;;;5076701;28;20467;-75
2023/05/28 06:30:18;;;;;;;5.77;3.50;;;;;;;;;;5076385;28;20475;-75
2023/05/28 06:32:45;;;;;;;5.97;3.60;;;;;;;;;;5076720;28;20867;-75
2023/05/28 06:35:14;;;;;;;7.20;4.30;;;;;;;;;;5076754;28;20435;-75
2023/05/28 06:37:41;;;;;;;5.83;3.80;;;;;;;;;;5076689;28;20444;-75
2023/05/28 06:40:10;;;;;;;6.93;3.97;;;;;;;;;;5076147;28;20467;-75
2023/05/28 06:42:37;;;;;;;6.27;3.43;;;;;;;;;;5076660;28;20811;-75
2023/05/28 06:45:04;;;;;;;7.47;4.03;;;;;;;;;;5076375;28;20949;-75
2023/05/28 06:47:31;;;;;;;6.77;4.20;;;;;;;;;;5076285;28;20491;-75
2023/05/28 06:49:59;;;;;;;6.47;3.67;;;;;;;;;;5076127;28;20482;-75
2023/05/28 06:52:27;;;;;;;5.77;4.20;;;;;;;;;;5076055;28;20456;-75
2023/05/28 06:54:54;;;;;;;9.47;3.50;;;;;;;;;;5076181;28;20922;-75
2023/05/28 06:57:22;;;;;;;4.83;3.50;;;;;;;;;;5076322;28;20451;-75
2023/05/28 06:59:49;;;;;;;8.07;4.30;;;;;;;;;;5075838;28;20836;-75
2023/05/28 07:02:16;;;;;;;12.80;4.40;;;;;;;;;;5075913;28;20456;-75
2023/05/28 07:04:43;;;;;;;6.30;3.73;;;;;;;;;;5075974;28;20463;-75
2023/05/28 07:07:10;;;;;;;5.00;4.40;;;;;;;;;;5075762;28;20962;-75
2023/05/28 07:09:39;;;;;;;5.00;3.60;;;;;;;;;;5075910;28;20503;-75
2023/05/28 07:12:07;;;;;;;7.17;4.77;;;;;;;;;;5075841;28;20517;-75
2023/05/28 07:14:34;;;;;;;5.90;3.50;;;;;;;;;;5075612;28;20455;-75
2023/05/28 07:17:01;;;;;;;5.90;4.37;;;;;;;;;;5075835;28;20962;-75
2023/05/28 07:19:28;;;;;;;6.63;4.10;;;;;;;;;;5075600;28;20499;-76
2023/05/28 07:21:55;;;;;;;7.13;3.90;;;;;;;;;;5075746;28;20459;-75
2023/05/28 07:24:22;;;;;;;9.47;4.00;;;;;;;;;;5075168;28;20452;-75
2023/05/28 07:26:50;;;;;;;7.27;4.03;;;;;;;;;;5075630;28;20922;-75
2023/05/28 07:29:18;;;;;;;5.57;3.80;;;;;;;;;;5075009;28;20495;-75
2023/05/28 07:31:45;;;;;;;9.50;4.40;;;;;;;;;;5075756;28;20893;-75
2023/05/28 07:34:13;;;;;;;9.10;4.20;;;;;;;;;;5073923;28;20823;-75
2023/05/28 07:36:40;;;;;;;7.00;4.17;;;;;;;;;;5075530;28;20942;-75
2023/05/28 07:39:08;;;;;;;7.57;4.30;;;;;;;;;;5075278;28;20477;-75
2023/05/28 07:41:35;;;;;;;7.23;4.20;;;;;;;;;;5075231;28;20467;-75
2023/05/28 07:44:03;;;;;;;5.57;4.13;;;;;;;;;;5075032;28;20452;-75
2023/05/28 07:46:30;;;;;;;9.63;3.93;;;;;;;;;;5075136;28;20550;-75
2023/05/28 07:48:57;;;;;;;5.30;4.20;;;;;;;;;;5074864;28;20888;-75
2023/05/28 07:51:25;;;;;;;5.10;3.47;;;;;;;;;;5074958;28;20467;-75
2023/05/28 07:53:53;;;;;;;6.80;3.80;;;;;;;;;;5075033;28;20462;-75
2023/05/28 07:56:21;;;;;;;5.97;3.70;;;;;;;;;;5075090;28;20452;-75
2023/05/28 07:58:48;;;;;;;6.27;3.90;;;;;;;;;;5074798;28;20464;-75
2023/05/28 08:01:17;;;;;;;7.17;4.20;;;;;;;;;;5074807;28;20455;-75
2023/05/28 08:03:44;;;;;;;7.73;4.47;;;;;;;;;;5074931;28;20448;-75
2023/05/28 08:06:11;;;;;;;8.27;4.57;;;;;;;;;;5074691;28;20452;-75
2023/05/28 08:08:38;;;;;;;10.33;4.43;;;;;;;;;;5074489;28;20546;-75
2023/05/28 08:11:05;;;;;;;6.33;3.97;;;;;;;;;;5074637;28;20451;-75
2023/05/28 08:13:32;;;;;;;6.53;4.13;;;;;;;;;;5074768;28;20478;-75
2023/05/28 08:16:00;;;;;;;6.47;3.60;;;;;;;;;;5074483;28;20455;-75
2023/05/28 08:18:29;;;;;;;6.07;4.07;;;;;;;;;;5074238;28;20941;-76
2023/05/28 08:20:56;;;;;;;6.93;4.67;;;;;;;;;;5074487;28;20452;-75
2023/05/28 08:23:23;;;;;;;6.57;4.33;;;;;;;;;;5074390;28;20448;-75
2023/05/28 08:25:51;;;;;;;8.90;3.73;;;;;;;;;;5074020;28;20463;-75
2023/05/28 08:28:18;;;;;;;6.77;3.93;;;;;;;;;;5073976;28;20491;-75
2023/05/28 08:30:45;;;;;;;6.70;4.70;;;;;;;;;;5074328;28;20934;-75
2023/05/28 08:33:12;;;;;;;5.43;3.70;;;;;;;;;;5074194;28;20512;-75
2023/05/28 08:35:40;;;;;;;6.30;4.00;;;;;;;;;;5074237;28;20988;-74
2023/05/28 08:38:08;;;;;;;5.50;3.80;;;;;;;;;;5074271;28;20455;-75
2023/05/28 08:40:40;;;;;;;6.47;4.10;;;;;;;;;;5073952;28;20471;-75
2023/05/28 08:43:07;;;;;;;8.30;4.00;;;;;;;;;;5074012;28;20483;-75
2023/05/28 08:45:34;;;;;;;5.43;4.07;;;;;;;;;;5073639;28;20808;-75
2023/05/28 08:48:02;;;;;;;6.17;3.50;;;;;;;;;;5073745;28;20529;-75
2023/05/28 08:50:30;;;;;;;8.20;4.10;;;;;;;;;;5073896;28;20480;-75
2023/05/28 08:53:01;;;;;;;5.30;3.83;;;;;;;;;;5073860;28;20825;-75
2023/05/28 08:55:28;;;;;;;7.10;4.50;;;;;;;;;;5073846;28;20478;-75
2023/05/28 08:57:55;;;;;;;7.97;3.67;;;;;;;;;;5073847;28;20455;-75
2023/05/28 09:00:22;;;;;;;9.63;4.27;;;;;;;;;;5073420;28;20487;-75
2023/05/28 09:02:50;;;;;;;5.27;3.57;;;;;;;;;;5073894;28;20452;-75
2023/05/28 09:05:18;;;;;;;6.03;4.10;;;;;;;;;;5073485;28;20460;-75
2023/05/28 09:07:45;;;;;;;7.93;4.07;;;;;;;;;;5073837;28;20930;-75
2023/05/28 09:10:13;;;;;;;5.03;3.93;;;;;;;;;;5073278;28;20464;-75
2023/05/28 09:12:41;;;;;;;6.23;4.60;;;;;;;;;;5073869;28;20463;-75
2023/05/28 09:15:09;;;;;;;5.23;4.13;;;;;;;;;;5073436;28;20938;-75
2023/05/28 09:17:37;;;;;;;6.63;3.43;;;;;;;;;;5073300;28;20484;-75
2023/05/28 09:20:11;;;;;;;10.00;4.00;;;;;;;;;;5073008;28;20471;-75
2023/05/28 09:22:38;;;;;;;6.97;4.00;;;;;;;;;;5073350;28;20483;-75
2023/05/28 09:25:07;;;;;;;9.50;3.97;;;;;;;;;;5072754;28;20487;-75
2023/05/28 09:27:36;;;;;;;8.43;3.93;;;;;;;;;;5073238;28;20937;-75
2023/05/28 09:30:05;;;;;;;5.80;3.53;;;;;;;;;;5072873;28;20496;-75
2023/05/28 09:32:35;;;;;;;10.03;3.93;;;;;;;;;;5073515;28;20546;-75
2023/05/28 09:35:02;;;;;;;6.57;4.43;;;;;;;;;;5073260;28;20483;-75
2023/05/28 09:37:30;;;;;;;7.83;4.20;;;;;;;;;;5073036;28;20455;-75
2023/05/28 09:40:04;;;;;;;9.03;4.30;;;;;;;;;;5072747;28;20962;-75
2023/05/28 09:42:41;;;;;;;6.40;4.47;;;;;;;;;;5073130;28;20494;-75
2023/05/28 09:45:09;;;;;;;10.27;3.30;;;;;;;;;;5073064;28;20467;-75
2023/05/28 09:47:43;;;;;;;8.30;3.90;;;;;;;;;;5073102;28;20447;-75
2023/05/28 09:50:11;;;;;;;9.30;3.97;;;;;;;;;;5072809;28;20522;-75
2023/05/28 09:52:39;;;;;;;6.27;3.23;;;;;;;;;;5073003;28;20452;-75
2023/05/28 09:55:08;;;;;;;9.00;3.47;;;;;;;;;;5073026;28;20451;-75
2023/05/28 09:57:37;;;;;;;9.23;4.50;;;;;;;;;;5072011;28;20495;-75
2023/05/28 10:00:13;;;;;;;4.80;3.27;;;;;;;;;;5072654;28;20483;-75
2023/05/28 10:02:45;;;;;;;5.77;3.90;;;;;;;;;;5073021;28;20450;-75
2023/05/28 10:05:15;;;;;;;6.07;3.47;;;;;;;;;;5072835;28;20497;-75
2023/05/28 10:07:44;;;;;;;6.20;3.77;;;;;;;;;;5072836;28;20964;-75
2023/05/28 10:10:12;;;;;;;4.17;3.73;;;;;;;;;;5072577;28;20503;-75
2023/05/28 10:12:40;;;;;;;8.90;3.83;;;;;;;;;;5072879;28;20454;-75
2023/05/28 10:15:10;;;;;;;8.70;3.80;;;;;;;;;;5072717;28;20937;-75
2023/05/28 10:17:37;;;;;;;5.97;4.13;;;;;;;;;;5072828;28;20456;-75
2023/05/28 10:20:05;;;;;;;4.60;3.50;;;;;;;;;;5072383;28;20468;-75
2023/05/28 10:22:32;;;;;;;4.03;3.50;;;;;;;;;;5072835;28;21021;-75
2023/05/28 10:25:01;;;;;;;5.40;3.53;;;;;;;;;;5072327;28;20898;-75
2023/05/28 10:27:31;;;;;;;9.83;4.37;;;;;;;;;;5072998;28;20534;-75
2023/05/28 10:29:58;;;;;;;6.17;4.17;;;;;;;;;;5072261;28;20545;-75
2023/05/28 10:32:26;;;;;;;5.00;3.60;;;;;;;;;;5072793;28;20448;-75
2023/05/28 10:35:02;;;;;;;5.07;3.73;;;;;;;;;;5072463;28;20447;-75
2023/05/28 10:37:30;;;;;;;5.20;3.70;;;;;;;;;;5072928;28;20491;-75
2023/05/28 10:39:57;;;;;;;7.43;4.07;;;;;;;;;;5072389;28;20467;-75
2023/05/28 10:42:24;;;;;;;7.03;3.87;;;;;;;;;;5072490;28;20463;-75
2023/05/28 10:44:52;;;;;;;5.23;3.83;;;;;;;;;;5072645;28;20459;-75
2023/05/28 10:47:20;;;;;;;7.33;3.60;;;;;;;;;;5072400;28;20459;-75
2023/05/28 10:50:02;;;;;;;6.47;3.57;;;;;;;;;;5072208;28;20578;-75
2023/05/28 10:52:29;;;;;;;5.97;3.43;;;;;;;;;;5072424;28;20455;-75
2023/05/28 10:54:56;;;;;;;10.60;4.10;;;;;;;;;;5072600;28;20479;-75
2023/05/28 10:57:23;;;;;;;9.10;3.80;;;;;;;;;;5072450;28;20456;-75
2023/05/28 10:59:51;;;;;;;4.27;3.17;;;;;;;;;;5072109;28;20510;-75
2023/05/28 11:02:19;;;;;;;4.23;3.00;;;;;;;;;;5072215;28;20462;-75
2023/05/28 11:04:47;;;;;;;7.10;4.57;;;;;;;;;;5072606;28;20879;-75
2023/05/28 11:07:15;;;;;;;5.17;4.67;;;;;;;;;;5072423;28;20528;-75
2023/05/28 11:09:43;;;;;;;6.90;3.77;;;;;;;;;;5075538;28;20836;-76
2023/05/28 11:12:10;;;;;;;4.10;3.53;;;;;;;;;;5075841;28;20460;-75
2023/05/28 11:14:38;;;;;;;4.27;3.33;;;;;;;;;;5076098;28;20463;-76
2023/05/28 11:17:12;;;;;;;3.93;3.20;;;;;;;;;;5075887;28;20462;-75
2023/05/28 11:19:45;;;;;;;5.13;2.83;;;;;;;;;;5075489;28;20479;-75
2023/05/28 11:22:12;;;;;;;5.50;3.87;;;;;;;;;;5075910;28;20448;-75
2023/05/28 11:24:58;;;;;;;7.73;4.23;;;;;;;;;;5075434;28;20456;-76
2023/05/28 11:27:26;;;;;;;5.80;3.00;;;;;;;;;;5075559;28;20508;-76
2023/05/28 11:29:54;;;;;;;5.27;3.20;;;;;;;;;;5075037;28;20499;-75
2023/05/28 11:32:22;;;;;;;6.13;4.27;;;;;;;;;;5075298;28;20969;-75
2023/05/28 11:34:49;;;;;;;5.07;3.27;;;;;;;;;;5075405;28;20448;-75
2023/05/28 11:37:16;;;;;;;5.77;4.00;;;;;;;;;;5075428;28;20466;-75
2023/05/28 11:39:50;;;;;;;7.53;3.33;;;;;;;;;;5074904;28;20468;-75
2023/05/28 11:42:19;;;;;;;6.50;3.60;;;;;;;;;;5075276;28;20513;-76
2023/05/28 11:44:47;;;;;;;5.27;3.70;;;;;;;;;;5075247;28;20454;-75
2023/05/28 11:47:14;;;;;;;5.47;3.60;;;;;;;;;;5075245;28;20448;-75
2023/05/28 11:49:41;;;;;;;5.80;3.40;;;;;;;;;;5074704;28;20487;-75
2023/05/28 11:52:11;;;;;;;11.03;3.80;;;;;;;;;;5075260;28;20542;-75
2023/05/28 11:54:38;;;;;;;4.83;3.27;;;;;;;;;;5075768;28;20788;-75
2023/05/28 11:57:06;;;;;;;6.50;3.43;;;;;;;;;;5075073;28;20865;-75
2023/05/28 11:59:35;;;;;;;6.73;4.10;;;;;;;;;;5074828;28;20812;-75
2023/05/28 12:02:12;;;;;;;5.70;3.97;;;;;;;;;;5074976;28;20958;-76
2023/05/28 12:04:40;;;;;;;5.50;3.30;;;;;;;;;;5074953;28;20459;-75
2023/05/28 12:07:07;;;;;;;4.03;3.20;;;;;;;;;;5074858;28;20460;-75
2023/05/28 12:09:35;;;;;;;5.20;3.50;;;;;;;;;;5074663;28;20519;-75
2023/05/28 12:12:11;;;;;;;4.40;2.90;;;;;;;;;;5074727;28;20451;-75
2023/05/28 12:14:40;;;;;;;4.80;3.60;;;;;;;;;;5074859;28;20520;-75
2023/05/28 12:17:08;;;;;;;5.53;3.40;;;;;;;;;;5074636;28;20479;-75
2023/05/28 12:19:35;;;;;;;5.23;3.40;;;;;;;;;;5073633;28;20474;-75
2023/05/28 12:22:03;;;;;;;4.53;3.13;;;;;;;;;;5074520;28;20463;-74
2023/05/28 12:24:30;;;;;;;3.93;3.20;;;;;;;;;;5074122;28;20459;-74
2023/05/28 12:26:58;;;;;;;4.67;2.83;;;;;;;;;;5074348;28;20977;-75
2023/05/28 12:29:25;;;;;;;6.30;4.13;;;;;;;;;;5073711;28;20491;-74
2023/05/28 12:32:00;;;;;;;4.40;3.07;;;;;;;;;;5074486;28;20448;-74
2023/05/28 12:34:27;;;;;;;6.47;3.73;;;;;;;;;;5074236;28;20475;-74
2023/05/28 12:36:55;;;;;;;4.63;3.47;;;;;;;;;;5074279;28;20530;-74
2023/05/28 12:39:22;;;;;;;12.23;3.63;;;;;;;;;;5073753;28;20901;-74
2023/05/28 12:41:49;;;;;;;4.90;4.30;;;;;;;;;;5074124;28;20468;-74
2023/05/28 12:44:16;;;;;;;6.70;4.10;;;;;;;;;;5074151;28;21084;-74
2023/05/28 12:46:43;;;;;;;4.27;3.70;;;;;;;;;;5074284;28;20455;-74
2023/05/28 12:49:12;;;;;;;4.00;3.23;;;;;;;;;;5073694;28;20467;-74
2023/05/28 12:51:39;;;;;;;4.43;3.30;;;;;;;;;;5073971;28;20458;-74
2023/05/28 12:54:07;;;;;;;6.13;3.20;;;;;;;;;;5073749;28;20891;-74
2023/05/28 12:56:34;;;;;;;8.97;3.50;;;;;;;;;;5073873;28;20942;-74
2023/05/28 12:59:01;;;;;;;7.60;3.70;;;;;;;;;;5073387;28;20918;-74
2023/05/28 13:01:28;;;;;;;3.40;3.00;;;;;;;;;;5073781;28;20456;-74
2023/05/28 13:03:55;;;;;;;6.13;2.80;;;;;;;;;;5073688;28;20463;-74
2023/05/28 13:06:24;;;;;;;4.60;3.33;;;;;;;;;;5073466;28;20530;-74
2023/05/28 13:08:51;;;;;;;5.53;3.53;;;;;;;;;;5073522;28;20494;-74
2023/05/28 13:11:18;;;;;;;6.50;3.47;;;;;;;;;;5073295;28;20498;-74
2023/05/28 13:13:45;;;;;;;8.43;3.60;;;;;;;;;;5073454;28;20458;-74
2023/05/28 13:16:12;;;;;;;5.43;3.30;;;;;;;;;;5073307;28;20447;-74
2023/05/28 13:18:39;;;;;;;4.50;3.60;;;;;;;;;;5073129;28;20475;-74
2023/05/28 13:21:08;;;;;;;4.77;2.80;;;;;;;;;;5073398;28;20546;-74
2023/05/28 13:23:36;;;;;;;5.40;3.30;;;;;;;;;;5073223;28;20918;-74
2023/05/28 13:26:03;;;;;;;3.90;2.83;;;;;;;;;;5072846;28;20452;-74
2023/05/28 13:28:30;;;;;;;3.13;2.60;;;;;;;;;;5072973;28;20470;-74
2023/05/28 13:30:57;;;;;;;7.73;3.60;;;;;;;;;;5073138;28;21009;-74
2023/05/28 13:33:25;;;;;;;4.90;3.10;;;;;;;;;;5073210;28;20475;-74
2023/05/28 13:35:52;;;;;;;5.13;3.33;;;;;;;;;;5073366;28;20460;-74
2023/05/28 13:38:19;;;;;;;5.97;4.50;;;;;;;;;;5072747;28;20460;-74
2023/05/28 13:40:47;;;;;;;5.10;3.33;;;;;;;;;;5073083;28;20447;-74
2023/05/28 13:43:14;;;;;;;3.73;3.00;;;;;;;;;;5073031;28;20946;-74
2023/05/28 13:45:42;;;;;;;4.30;3.13;;;;;;;;;;5073492;28;20853;-74
2023/05/28 13:48:09;;;;;;;4.23;3.03;;;;;;;;;;5072841;28;20460;-74
2023/05/28 13:50:36;;;;;;;3.43;2.90;;;;;;;;;;5072772;28;20479;-74
2023/05/28 13:53:04;;;;;;;3.30;2.60;;;;;;;;;;5073168;28;20825;-74
2023/05/28 13:55:31;;;;;;;4.77;3.33;;;;;;;;;;5073070;28;20451;-74
2023/05/28 13:57:59;;;;;;;5.70;3.30;;;;;;;;;;5073182;28;20458;-74
2023/05/28 14:00:26;;;;;;;5.00;3.27;;;;;;;;;;5072693;28;20466;-74
2023/05/28 14:02:53;;;;;;;6.77;3.70;;;;;;;;;;5073004;28;20451;-74
2023/05/28 14:05:20;;;;;;;9.50;2.97;;;;;;;;;;5072909;28;20452;-74
2023/05/28 14:07:47;;;;;;;8.00;3.70;;;;;;;;;;5072850;28;20497;-74
2023/05/28 14:10:15;;;;;;;4.27;3.00;;;;;;;;;;5072672;28;20495;-74
2023/05/28 14:12:42;;;;;;;4.70;3.00;;;;;;;;;;5072841;28;21003;-74
2023/05/28 14:15:11;;;;;;;5.63;3.77;;;;;;;;;;5072784;28;20452;-74
2023/05/28 14:17:38;;;;;;;6.70;3.60;;;;;;;;;;5072703;28;20447;-74
2023/05/28 14:20:05;;;;;;;8.97;4.20;;;;;;;;;;5072441;28;20470;-74
2023/05/28 14:22:32;;;;;;;5.00;3.20;;;;;;;;;;5072661;28;20815;-74
2023/05/28 14:24:59;;;;;;;6.80;3.83;;;;;;;;;;5072491;28;20458;-74
2023/05/28 14:27:26;;;;;;;5.13;4.03;;;;;;;;;;5072915;28;20973;-74
2023/05/28 14:29:53;;;;;;;4.30;3.60;;;;;;;;;;5072176;28;20496;-74
2023/05/28 14:32:22;;;;;;;8.03;4.03;;;;;;;;;;5072584;28;20458;-74
2023/05/28 14:34:49;;;;;;;5.40;3.80;;;;;;;;;;5072602;28;20826;-74
2023/05/28 14:37:17;;;;;;;8.87;3.53;;;;;;;;;;5072489;28;20475;-74
2023/05/28 14:39:44;;;;;;;4.43;2.57;;;;;;;;;;5072741;28;20459;-74
2023/05/28 14:42:11;;;;;;;4.47;3.07;;;;;;;;;;5072521;28;20444;-74